sensor_id;sensor_type;location;lat;lon;timestamp;P1;durP1;ratioP1;P2;durP2;ratioP2
62535;SDS011;63050;47.514;18.920;2023-03-12T00:03:55;3.50;;;1.60;;
62535;SDS011;63050;47.514;18.920;2023-03-12T00:08:56;3.80;;;2.40;;
62535;SDS011;63050;47.514;18.920;2023-03-12T00:13:58;2.10;;;1.50;;
62535;SDS011;63050;47.514;18.920;2023-03-12T00:19:02;2.50;;;1.50;;
62535;SDS011;63050;47.514;18.920;2023-03-12T00:24:03;3.30;;;1.80;;
62535;SDS011;63050;47.514;18.920;2023-03-12T00:29:05;2.40;;;1.70;;
62535;SDS011;63050;47.514;18.920;2023-03-12T00:34:06;3.20;;;1.90;;
62535;SDS011;63050;47.514;18.920;2023-03-12T00:39:07;2.50;;;1.20;;
62535;SDS011;63050;47.514;18.920;2023-03-12T00:44:08;3.40;;;1.90;;
62535;SDS011;63050;47.514;18.920;2023-03-12T00:49:09;3.30;;;1.70;;
62535;SDS011;63050;47.514;18.920;2023-03-12T00:54:11;2.90;;;1.30;;
62535;SDS011;63050;47.514;18.920;2023-03-12T00:59:13;2.70;;;1.50;;
62535;SDS011;63050;47.514;18.920;2023-03-12T01:04:14;3.60;;;1.80;;
62535;SDS011;63050;47.514;18.920;2023-03-12T01:09:17;3.00;;;1.80;;
62535;SDS011;63050;47.514;18.920;2023-03-12T01:14:18;5.30;;;2.30;;
62535;SDS011;63050;47.514;18.920;2023-03-12T01:19:19;5.00;;;1.90;;
62535;SDS011;63050;47.514;18.920;2023-03-12T01:24:21;2.70;;;1.90;;
62535;SDS011;63050;47.514;18.920;2023-03-12T01:29:22;3.90;;;2.50;;
62535;SDS011;63050;47.514;18.920;2023-03-12T01:34:23;4.40;;;2.40;;
62535;SDS011;63050;47.514;18.920;2023-03-12T01:39:24;2.70;;;1.90;;
62535;SDS011;63050;47.514;18.920;2023-03-12T01:44:25;3.00;;;2.00;;
62535;SDS011;63050;47.514;18.920;2023-03-12T01:49:33;4.20;;;2.40;;
62535;SDS011;63050;47.514;18.920;2023-03-12T01:54:47;3.70;;;2.30;;
62535;SDS011;63050;47.514;18.920;2023-03-12T01:59:53;3.90;;;2.10;;
62535;SDS011;63050;47.514;18.920;2023-03-12T02:05:02;4.40;;;2.40;;
62535;SDS011;63050;47.514;18.920;2023-03-12T02:10:14;3.70;;;2.50;;
62535;SDS011;63050;47.514;18.920;2023-03-12T02:15:16;4.10;;;2.50;;
62535;SDS011;63050;47.514;18.920;2023-03-12T02:25:43;4.50;;;3.20;;
62535;SDS011;63050;47.514;18.920;2023-03-12T02:30:47;2.50;;;2.00;;
62535;SDS011;63050;47.514;18.920;2023-03-12T02:35:50;4.20;;;2.60;;
62535;SDS011;63050;47.514;18.920;2023-03-12T02:40:51;5.00;;;2.80;;
62535;SDS011;63050;47.514;18.920;2023-03-12T02:45:53;3.90;;;2.70;;
62535;SDS011;63050;47.514;18.920;2023-03-12T02:50:56;4.90;;;2.80;;
62535;SDS011;63050;47.514;18.920;2023-03-12T02:55:58;5.00;;;3.20;;
62535;SDS011;63050;47.514;18.920;2023-03-12T03:00:59;4.30;;;2.90;;
62535;SDS011;63050;47.514;18.920;2023-03-12T03:06:00;5.50;;;3.40;;
62535;SDS011;63050;47.514;18.920;2023-03-12T03:11:01;5.40;;;3.70;;
62535;SDS011;63050;47.514;18.920;2023-03-12T03:16:03;5.90;;;3.40;;
62535;SDS011;63050;47.514;18.920;2023-03-12T03:21:06;4.60;;;3.30;;
62535;SDS011;63050;47.514;18.920;2023-03-12T03:26:10;6.50;;;3.70;;
62535;SDS011;63050;47.514;18.920;2023-03-12T03:31:12;5.60;;;3.10;;
62535;SDS011;63050;47.514;18.920;2023-03-12T03:36:14;4.20;;;3.40;;
62535;SDS011;63050;47.514;18.920;2023-03-12T03:41:20;6.90;;;3.00;;
62535;SDS011;63050;47.514;18.920;2023-03-12T03:46:22;7.40;;;4.10;;
62535;SDS011;63050;47.514;18.920;2023-03-12T03:51:28;6.90;;;3.70;;
62535;SDS011;63050;47.514;18.920;2023-03-12T03:56:33;5.80;;;3.60;;
62535;SDS011;63050;47.514;18.920;2023-03-12T04:01:35;4.60;;;3.30;;
62535;SDS011;63050;47.514;18.920;2023-03-12T04:06:36;7.60;;;4.20;;
62535;SDS011;63050;47.514;18.920;2023-03-12T04:11:38;4.80;;;3.30;;
62535;SDS011;63050;47.514;18.920;2023-03-12T04:16:40;5.50;;;3.40;;
62535;SDS011;63050;47.514;18.920;2023-03-12T04:21:41;3.80;;;2.80;;
62535;SDS011;63050;47.514;18.920;2023-03-12T04:26:43;6.00;;;3.30;;
62535;SDS011;63050;47.514;18.920;2023-03-12T04:31:44;5.50;;;3.80;;
62535;SDS011;63050;47.514;18.920;2023-03-12T04:36:46;5.90;;;3.70;;
62535;SDS011;63050;47.514;18.920;2023-03-12T04:41:48;8.00;;;4.50;;
62535;SDS011;63050;47.514;18.920;2023-03-12T04:46:49;5.30;;;3.70;;
62535;SDS011;63050;47.514;18.920;2023-03-12T04:51:53;7.60;;;4.50;;
62535;SDS011;63050;47.514;18.920;2023-03-12T04:56:55;5.00;;;4.00;;
62535;SDS011;63050;47.514;18.920;2023-03-12T05:01:56;5.50;;;4.10;;
62535;SDS011;63050;47.514;18.920;2023-03-12T05:07:00;6.00;;;4.20;;
62535;SDS011;63050;47.514;18.920;2023-03-12T05:12:01;6.90;;;4.50;;
62535;SDS011;63050;47.514;18.920;2023-03-12T05:17:03;6.60;;;4.60;;
62535;SDS011;63050;47.514;18.920;2023-03-12T05:22:05;8.00;;;4.50;;
62535;SDS011;63050;47.514;18.920;2023-03-12T05:27:06;8.10;;;4.80;;
62535;SDS011;63050;47.514;18.920;2023-03-12T05:32:08;6.50;;;4.50;;
62535;SDS011;63050;47.514;18.920;2023-03-12T05:37:09;7.00;;;4.60;;
62535;SDS011;63050;47.514;18.920;2023-03-12T05:42:12;7.60;;;4.90;;
62535;SDS011;63050;47.514;18.920;2023-03-12T05:47:13;7.50;;;4.70;;
62535;SDS011;63050;47.514;18.920;2023-03-12T05:52:15;6.90;;;4.30;;
62535;SDS011;63050;47.514;18.920;2023-03-12T05:57:17;7.50;;;4.20;;
62535;SDS011;63050;47.514;18.920;2023-03-12T06:02:18;9.10;;;4.90;;
62535;SDS011;63050;47.514;18.920;2023-03-12T06:07:19;6.70;;;4.40;;
62535;SDS011;63050;47.514;18.920;2023-03-12T06:12:20;7.30;;;4.50;;
62535;SDS011;63050;47.514;18.920;2023-03-12T06:17:22;8.90;;;5.20;;
62535;SDS011;63050;47.514;18.920;2023-03-12T06:22:23;8.70;;;4.90;;
62535;SDS011;63050;47.514;18.920;2023-03-12T06:27:25;6.70;;;4.30;;
62535;SDS011;63050;47.514;18.920;2023-03-12T06:32:26;8.90;;;5.60;;
62535;SDS011;63050;47.514;18.920;2023-03-12T06:37:27;8.60;;;5.70;;
62535;SDS011;63050;47.514;18.920;2023-03-12T06:42:28;7.00;;;4.40;;
62535;SDS011;63050;47.514;18.920;2023-03-12T06:47:29;6.80;;;4.40;;
62535;SDS011;63050;47.514;18.920;2023-03-12T06:52:30;6.30;;;4.60;;
62535;SDS011;63050;47.514;18.920;2023-03-12T06:57:31;6.90;;;5.00;;
62535;SDS011;63050;47.514;18.920;2023-03-12T07:02:32;8.40;;;5.10;;
62535;SDS011;63050;47.514;18.920;2023-03-12T07:07:33;8.10;;;4.90;;
62535;SDS011;63050;47.514;18.920;2023-03-12T07:12:34;8.40;;;4.80;;
62535;SDS011;63050;47.514;18.920;2023-03-12T07:17:36;7.10;;;4.80;;
62535;SDS011;63050;47.514;18.920;2023-03-12T07:22:37;5.30;;;4.40;;
62535;SDS011;63050;47.514;18.920;2023-03-12T07:27:38;7.10;;;5.40;;
62535;SDS011;63050;47.514;18.920;2023-03-12T07:32:39;7.60;;;5.00;;
62535;SDS011;63050;47.514;18.920;2023-03-12T07:37:40;5.50;;;3.90;;
62535;SDS011;63050;47.514;18.920;2023-03-12T07:42:41;7.20;;;4.80;;
62535;SDS011;63050;47.514;18.920;2023-03-12T07:47:43;8.50;;;5.30;;
62535;SDS011;63050;47.514;18.920;2023-03-12T07:52:44;7.10;;;5.80;;
62535;SDS011;63050;47.514;18.920;2023-03-12T07:57:46;8.00;;;5.30;;
62535;SDS011;63050;47.514;18.920;2023-03-12T08:02:47;8.80;;;5.50;;
62535;SDS011;63050;47.514;18.920;2023-03-12T08:07:48;6.50;;;4.70;;
62535;SDS011;63050;47.514;18.920;2023-03-12T08:12:49;4.80;;;3.50;;
62535;SDS011;63050;47.514;18.920;2023-03-12T08:17:50;4.10;;;3.30;;
62535;SDS011;63050;47.514;18.920;2023-03-12T08:22:51;4.40;;;3.10;;
62535;SDS011;63050;47.514;18.920;2023-03-12T08:27:52;5.80;;;3.80;;
62535;SDS011;63050;47.514;18.920;2023-03-12T08:32:53;4.90;;;3.50;;
62535;SDS011;63050;47.514;18.920;2023-03-12T08:37:54;7.70;;;3.50;;
62535;SDS011;63050;47.514;18.920;2023-03-12T08:42:56;5.30;;;3.90;;
62535;SDS011;63050;47.514;18.920;2023-03-12T08:47:57;5.70;;;4.00;;
62535;SDS011;63050;47.514;18.920;2023-03-12T08:52:58;5.40;;;3.30;;
62535;SDS011;63050;47.514;18.920;2023-03-12T08:57:59;6.10;;;4.10;;
62535;SDS011;63050;47.514;18.920;2023-03-12T09:03:00;5.40;;;3.70;;
62535;SDS011;63050;47.514;18.920;2023-03-12T09:08:01;6.70;;;4.00;;
62535;SDS011;63050;47.514;18.920;2023-03-12T09:13:03;5.20;;;3.90;;
62535;SDS011;63050;47.514;18.920;2023-03-12T09:18:04;5.20;;;4.00;;
62535;SDS011;63050;47.514;18.920;2023-03-12T09:23:05;4.40;;;2.70;;
62535;SDS011;63050;47.514;18.920;2023-03-12T09:28:06;5.60;;;3.70;;
62535;SDS011;63050;47.514;18.920;2023-03-12T09:33:08;5.10;;;3.70;;
62535;SDS011;63050;47.514;18.920;2023-03-12T09:38:13;5.30;;;3.80;;
62535;SDS011;63050;47.514;18.920;2023-03-12T09:43:20;3.70;;;2.90;;
62535;SDS011;63050;47.514;18.920;2023-03-12T09:48:31;3.90;;;3.20;;
62535;SDS011;63050;47.514;18.920;2023-03-12T09:53:37;4.10;;;2.60;;
62535;SDS011;63050;47.514;18.920;2023-03-12T09:58:44;5.00;;;3.30;;
62535;SDS011;63050;47.514;18.920;2023-03-12T10:30:01;3.20;;;2.40;;
62535;SDS011;63050;47.514;18.920;2023-03-12T10:35:14;3.00;;;2.20;;
62535;SDS011;63050;47.514;18.920;2023-03-12T10:40:19;2.60;;;1.90;;
62535;SDS011;63050;47.514;18.920;2023-03-12T10:45:33;1.90;;;1.30;;
62535;SDS011;63050;47.514;18.920;2023-03-12T10:51:03;2.50;;;2.00;;
62535;SDS011;63050;47.514;18.920;2023-03-12T11:01:27;4.00;;;2.70;;
62535;SDS011;63050;47.514;18.920;2023-03-12T11:06:30;5.90;;;3.20;;
62535;SDS011;63050;47.514;18.920;2023-03-12T11:11:31;4.00;;;3.00;;
62535;SDS011;63050;47.514;18.920;2023-03-12T11:16:34;4.10;;;2.50;;
62535;SDS011;63050;47.514;18.920;2023-03-12T11:21:35;3.00;;;2.30;;
62535;SDS011;63050;47.514;18.920;2023-03-12T11:26:55;3.80;;;2.90;;
62535;SDS011;63050;47.514;18.920;2023-03-12T11:32:03;2.50;;;1.60;;
62535;SDS011;63050;47.514;18.920;2023-03-12T11:48:07;3.30;;;2.50;;
62535;SDS011;63050;47.514;18.920;2023-03-12T11:53:22;2.00;;;1.40;;
62535;SDS011;63050;47.514;18.920;2023-03-12T11:58:46;2.20;;;1.60;;
62535;SDS011;63050;47.514;18.920;2023-03-12T12:04:00;2.40;;;1.50;;
62535;SDS011;63050;47.514;18.920;2023-03-12T12:36:30;2.50;;;1.50;;
62535;SDS011;63050;47.514;18.920;2023-03-12T12:41:35;1.90;;;1.20;;
62535;SDS011;63050;47.514;18.920;2023-03-12T12:46:39;2.80;;;1.00;;
62535;SDS011;63050;47.514;18.920;2023-03-12T12:51:52;2.60;;;1.30;;
62535;SDS011;63050;47.514;18.920;2023-03-12T13:02:18;2.30;;;0.90;;
62535;SDS011;63050;47.514;18.920;2023-03-12T13:22:54;3.00;;;1.40;;
62535;SDS011;63050;47.514;18.920;2023-03-12T13:28:27;1.80;;;1.30;;
62535;SDS011;63050;47.514;18.920;2023-03-12T13:33:45;2.40;;;1.50;;
62535;SDS011;63050;47.514;18.920;2023-03-12T13:38:56;5.30;;;1.40;;
62535;SDS011;63050;47.514;18.920;2023-03-12T14:00:17;2.50;;;1.40;;
62535;SDS011;63050;47.514;18.920;2023-03-12T14:05:30;2.90;;;1.80;;
62535;SDS011;63050;47.514;18.920;2023-03-12T14:10:49;2.40;;;1.70;;
62535;SDS011;63050;47.514;18.920;2023-03-12T14:21:11;2.70;;;1.80;;
62535;SDS011;63050;47.514;18.920;2023-03-12T14:26:16;2.70;;;1.80;;
62535;SDS011;63050;47.514;18.920;2023-03-12T14:31:21;4.30;;;1.90;;
62535;SDS011;63050;47.514;18.920;2023-03-12T14:36:25;2.70;;;1.80;;
62535;SDS011;63050;47.514;18.920;2023-03-12T14:41:32;3.40;;;1.90;;
62535;SDS011;63050;47.514;18.920;2023-03-12T14:46:35;3.10;;;1.80;;
62535;SDS011;63050;47.514;18.920;2023-03-12T14:51:36;3.30;;;1.80;;
62535;SDS011;63050;47.514;18.920;2023-03-12T14:56:38;3.00;;;1.70;;
62535;SDS011;63050;47.514;18.920;2023-03-12T15:01:43;2.30;;;1.50;;
62535;SDS011;63050;47.514;18.920;2023-03-12T15:06:53;2.60;;;1.70;;
62535;SDS011;63050;47.514;18.920;2023-03-12T15:11:57;3.40;;;1.60;;
62535;SDS011;63050;47.514;18.920;2023-03-12T15:17:00;5.00;;;1.70;;
62535;SDS011;63050;47.514;18.920;2023-03-12T15:22:03;3.70;;;2.40;;
62535;SDS011;63050;47.514;18.920;2023-03-12T15:27:19;3.10;;;2.00;;
62535;SDS011;63050;47.514;18.920;2023-03-12T15:32:28;7.50;;;2.10;;
62535;SDS011;63050;47.514;18.920;2023-03-12T15:37:32;2.40;;;1.90;;
62535;SDS011;63050;47.514;18.920;2023-03-12T15:42:42;3.30;;;1.90;;
62535;SDS011;63050;47.514;18.920;2023-03-12T15:47:46;3.50;;;2.30;;
62535;SDS011;63050;47.514;18.920;2023-03-12T15:53:03;2.50;;;1.80;;
62535;SDS011;63050;47.514;18.920;2023-03-12T15:58:27;3.10;;;1.90;;
62535;SDS011;63050;47.514;18.920;2023-03-12T16:03:35;6.50;;;2.20;;
62535;SDS011;63050;47.514;18.920;2023-03-12T16:08:38;4.50;;;2.30;;
62535;SDS011;63050;47.514;18.920;2023-03-12T16:13:43;2.70;;;1.60;;
62535;SDS011;63050;47.514;18.920;2023-03-12T16:18:45;3.70;;;2.00;;
62535;SDS011;63050;47.514;18.920;2023-03-12T16:23:46;12.00;;;2.60;;
62535;SDS011;63050;47.514;18.920;2023-03-12T16:28:48;3.30;;;2.00;;
62535;SDS011;63050;47.514;18.920;2023-03-12T16:33:50;6.60;;;2.10;;
62535;SDS011;63050;47.514;18.920;2023-03-12T16:38:51;2.80;;;2.20;;
62535;SDS011;63050;47.514;18.920;2023-03-12T16:43:55;4.20;;;2.30;;
62535;SDS011;63050;47.514;18.920;2023-03-12T16:49:00;7.90;;;2.70;;
62535;SDS011;63050;47.514;18.920;2023-03-12T16:54:03;6.70;;;2.60;;
62535;SDS011;63050;47.514;18.920;2023-03-12T16:59:06;4.10;;;2.30;;
62535;SDS011;63050;47.514;18.920;2023-03-12T17:04:12;6.70;;;2.70;;
62535;SDS011;63050;47.514;18.920;2023-03-12T17:09:14;5.60;;;2.60;;
62535;SDS011;63050;47.514;18.920;2023-03-12T17:14:17;7.20;;;2.30;;
62535;SDS011;63050;47.514;18.920;2023-03-12T17:19:22;9.90;;;2.70;;
62535;SDS011;63050;47.514;18.920;2023-03-12T17:24:24;8.90;;;2.80;;
62535;SDS011;63050;47.514;18.920;2023-03-12T17:29:28;3.90;;;1.80;;
62535;SDS011;63050;47.514;18.920;2023-03-12T17:34:29;11.50;;;6.80;;
62535;SDS011;63050;47.514;18.920;2023-03-12T17:39:32;11.70;;;6.40;;
62535;SDS011;63050;47.514;18.920;2023-03-12T17:44:35;13.60;;;6.70;;
62535;SDS011;63050;47.514;18.920;2023-03-12T17:49:39;8.50;;;5.10;;
62535;SDS011;63050;47.514;18.920;2023-03-12T17:54:42;4.40;;;2.90;;
62535;SDS011;63050;47.514;18.920;2023-03-12T17:59:43;4.10;;;2.50;;
62535;SDS011;63050;47.514;18.920;2023-03-12T18:04:45;10.90;;;3.20;;
62535;SDS011;63050;47.514;18.920;2023-03-12T18:09:48;8.90;;;3.40;;
62535;SDS011;63050;47.514;18.920;2023-03-12T18:14:50;5.80;;;2.50;;
62535;SDS011;63050;47.514;18.920;2023-03-12T18:19:54;4.40;;;2.00;;
62535;SDS011;63050;47.514;18.920;2023-03-12T18:24:55;4.50;;;2.30;;
62535;SDS011;63050;47.514;18.920;2023-03-12T18:29:57;5.20;;;2.40;;
62535;SDS011;63050;47.514;18.920;2023-03-12T18:34:59;4.10;;;2.40;;
62535;SDS011;63050;47.514;18.920;2023-03-12T18:40:01;6.10;;;3.10;;
62535;SDS011;63050;47.514;18.920;2023-03-12T18:45:05;6.60;;;3.10;;
62535;SDS011;63050;47.514;18.920;2023-03-12T18:50:11;5.70;;;3.40;;
62535;SDS011;63050;47.514;18.920;2023-03-12T18:55:14;7.20;;;3.50;;
62535;SDS011;63050;47.514;18.920;2023-03-12T19:00:17;7.90;;;4.20;;
62535;SDS011;63050;47.514;18.920;2023-03-12T19:05:19;8.70;;;5.70;;
62535;SDS011;63050;47.514;18.920;2023-03-12T19:10:20;13.10;;;6.80;;
62535;SDS011;63050;47.514;18.920;2023-03-12T19:15:24;11.80;;;7.70;;
62535;SDS011;63050;47.514;18.920;2023-03-12T19:20:25;14.20;;;7.10;;
62535;SDS011;63050;47.514;18.920;2023-03-12T19:25:27;6.60;;;4.00;;
62535;SDS011;63050;47.514;18.920;2023-03-12T19:30:29;9.20;;;5.30;;
62535;SDS011;63050;47.514;18.920;2023-03-12T19:35:36;10.70;;;6.50;;
62535;SDS011;63050;47.514;18.920;2023-03-12T19:40:46;9.50;;;4.90;;
62535;SDS011;63050;47.514;18.920;2023-03-12T19:45:49;8.80;;;5.00;;
62535;SDS011;63050;47.514;18.920;2023-03-12T19:50:51;8.20;;;4.60;;
62535;SDS011;63050;47.514;18.920;2023-03-12T19:55:54;7.50;;;4.80;;
62535;SDS011;63050;47.514;18.920;2023-03-12T20:01:00;6.70;;;4.10;;
62535;SDS011;63050;47.514;18.920;2023-03-12T20:06:02;5.30;;;3.30;;
62535;SDS011;63050;47.514;18.920;2023-03-12T20:11:11;5.10;;;3.40;;
62535;SDS011;63050;47.514;18.920;2023-03-12T20:16:12;6.90;;;3.00;;
62535;SDS011;63050;47.514;18.920;2023-03-12T20:21:15;4.70;;;3.00;;
62535;SDS011;63050;47.514;18.920;2023-03-12T20:26:18;6.00;;;2.40;;
62535;SDS011;63050;47.514;18.920;2023-03-12T20:31:21;6.40;;;3.40;;
62535;SDS011;63050;47.514;18.920;2023-03-12T20:36:23;6.80;;;3.80;;
62535;SDS011;63050;47.514;18.920;2023-03-12T20:41:25;7.40;;;3.30;;
62535;SDS011;63050;47.514;18.920;2023-03-12T20:46:26;9.40;;;3.70;;
62535;SDS011;63050;47.514;18.920;2023-03-12T20:51:28;6.20;;;3.70;;
62535;SDS011;63050;47.514;18.920;2023-03-12T20:56:32;7.40;;;3.90;;
62535;SDS011;63050;47.514;18.920;2023-03-12T21:01:34;6.70;;;4.10;;
62535;SDS011;63050;47.514;18.920;2023-03-12T21:06:36;7.00;;;4.00;;
62535;SDS011;63050;47.514;18.920;2023-03-12T21:11:38;6.70;;;3.80;;
62535;SDS011;63050;47.514;18.920;2023-03-12T21:16:39;14.20;;;7.50;;
62535;SDS011;63050;47.514;18.920;2023-03-12T21:21:41;17.30;;;9.80;;
62535;SDS011;63050;47.514;18.920;2023-03-12T21:26:43;18.90;;;9.10;;
62535;SDS011;63050;47.514;18.920;2023-03-12T21:31:44;16.60;;;7.80;;
62535;SDS011;63050;47.514;18.920;2023-03-12T21:36:46;14.80;;;7.70;;
62535;SDS011;63050;47.514;18.920;2023-03-12T21:41:47;14.20;;;7.90;;
62535;SDS011;63050;47.514;18.920;2023-03-12T21:46:48;13.30;;;7.00;;
62535;SDS011;63050;47.514;18.920;2023-03-12T21:51:49;5.10;;;3.60;;
62535;SDS011;63050;47.514;18.920;2023-03-12T21:56:51;8.10;;;4.30;;
62535;SDS011;63050;47.514;18.920;2023-03-12T22:01:52;6.10;;;3.50;;
62535;SDS011;63050;47.514;18.920;2023-03-12T22:06:53;6.40;;;4.10;;
62535;SDS011;63050;47.514;18.920;2023-03-12T22:11:56;8.70;;;4.00;;
62535;SDS011;63050;47.514;18.920;2023-03-12T22:16:57;8.70;;;5.50;;
62535;SDS011;63050;47.514;18.920;2023-03-12T22:21:58;8.70;;;5.60;;
62535;SDS011;63050;47.514;18.920;2023-03-12T22:26:59;9.80;;;6.00;;
62535;SDS011;63050;47.514;18.920;2023-03-12T22:32:02;10.20;;;5.80;;
62535;SDS011;63050;47.514;18.920;2023-03-12T22:37:04;11.80;;;5.40;;
62535;SDS011;63050;47.514;18.920;2023-03-12T22:42:05;11.00;;;5.40;;
62535;SDS011;63050;47.514;18.920;2023-03-12T22:47:06;7.30;;;4.70;;
62535;SDS011;63050;47.514;18.920;2023-03-12T22:52:07;9.00;;;4.90;;
62535;SDS011;63050;47.514;18.920;2023-03-12T22:57:09;6.10;;;4.20;;
62535;SDS011;63050;47.514;18.920;2023-03-12T23:02:10;6.70;;;4.40;;
62535;SDS011;63050;47.514;18.920;2023-03-12T23:07:12;5.80;;;3.70;;
62535;SDS011;63050;47.514;18.920;2023-03-12T23:12:13;7.70;;;4.20;;
62535;SDS011;63050;47.514;18.920;2023-03-12T23:17:14;9.90;;;4.30;;
62535;SDS011;63050;47.514;18.920;2023-03-12T23:22:15;8.80;;;4.40;;
62535;SDS011;63050;47.514;18.920;2023-03-12T23:27:16;6.90;;;4.80;;
62535;SDS011;63050;47.514;18.920;2023-03-12T23:32:17;10.10;;;4.30;;
62535;SDS011;63050;47.514;18.920;2023-03-12T23:37:18;8.60;;;5.00;;
62535;SDS011;63050;47.514;18.920;2023-03-12T23:42:20;6.70;;;4.60;;
62535;SDS011;63050;47.514;18.920;2023-03-12T23:47:21;7.90;;;4.80;;
62535;SDS011;63050;47.514;18.920;2023-03-12T23:52:24;9.20;;;5.10;;
62535;SDS011;63050;47.514;18.920;2023-03-12T23:57:26;8.00;;;4.80;;
